createdAt,value
2022-11-30T00:00:00.847Z,3.32
2022-11-30T00:03:05.106Z,3.33
2022-11-30T00:06:10.575Z,3.33
2022-11-30T00:09:14.436Z,3.30
2022-11-30T00:12:17.838Z,3.27
2022-11-30T00:15:21.330Z,3.29
2022-11-30T00:18:24.931Z,3.33
2022-11-30T00:21:28.207Z,3.37
2022-11-30T00:24:31.709Z,3.33
2022-11-30T00:27:35.845Z,3.36
2022-11-30T00:30:39.286Z,3.33
2022-11-30T00:33:43.047Z,3.34
2022-11-30T00:36:46.470Z,3.37
2022-11-30T00:39:49.953Z,3.41
2022-11-30T00:42:53.332Z,3.42
2022-11-30T00:45:56.621Z,3.43
2022-11-30T00:49:00.148Z,3.40
2022-11-30T00:52:04.702Z,3.42
2022-11-30T00:55:10.262Z,3.44
2022-11-30T00:58:14.135Z,3.46
2022-11-30T01:01:17.596Z,3.49
2022-11-30T01:04:21.749Z,3.53
2022-11-30T01:07:25.322Z,3.55
2022-11-30T01:10:29.232Z,3.56
2022-11-30T01:13:32.608Z,3.51
2022-11-30T01:16:36.042Z,3.55
2022-11-30T01:19:39.408Z,3.62
2022-11-30T01:22:42.789Z,3.63
2022-11-30T01:25:55.217Z,3.62
2022-11-30T01:28:58.664Z,3.62
2022-11-30T01:32:01.997Z,3.64
2022-11-30T01:35:06.534Z,3.66
2022-11-30T01:38:09.919Z,3.65
2022-11-30T01:41:15.093Z,3.60
2022-11-30T01:44:51.413Z,3.55
2022-11-30T01:47:57.103Z,3.52
2022-11-30T01:51:00.554Z,3.54
2022-11-30T01:54:06.839Z,3.55
2022-11-30T01:57:12.783Z,3.55
2022-11-30T02:00:16.233Z,3.54
2022-11-30T02:03:28.796Z,3.56
2022-11-30T02:06:32.757Z,3.62
2022-11-30T02:09:42.047Z,3.65
2022-11-30T02:13:05.526Z,3.69
2022-11-30T02:16:19.972Z,3.67
2022-11-30T02:20:05.367Z,3.66
2022-11-30T02:23:41.296Z,3.66
2022-11-30T02:26:58.645Z,3.69
2022-11-30T02:30:05.430Z,3.72
2022-11-30T02:33:13.511Z,3.74
2022-11-30T02:36:17.851Z,3.77
2022-11-30T02:39:22.275Z,3.78
2022-11-30T02:42:26.133Z,3.81
2022-11-30T02:45:34.449Z,3.82
2022-11-30T02:48:45.402Z,3.80
2022-11-30T02:51:50.303Z,3.78
2022-11-30T02:54:54.117Z,3.71
2022-11-30T02:57:57.517Z,3.67
2022-11-30T03:01:00.893Z,3.62
2022-11-30T03:04:04.552Z,3.62
2022-11-30T03:07:07.997Z,3.60
2022-11-30T03:10:12.250Z,3.54
2022-11-30T03:13:15.644Z,3.51
2022-11-30T03:16:18.975Z,3.49
2022-11-30T03:19:22.538Z,3.48
2022-11-30T03:22:26.224Z,3.46
2022-11-30T03:25:29.890Z,3.47
2022-11-30T03:28:33.241Z,3.49
2022-11-30T03:31:36.647Z,3.49
2022-11-30T03:34:40.353Z,3.48
2022-11-30T03:37:43.853Z,3.48
2022-11-30T03:40:47.357Z,3.45
2022-11-30T03:43:51.355Z,3.43
2022-11-30T03:46:54.846Z,3.45
2022-11-30T03:49:58.270Z,3.49
2022-11-30T03:53:01.640Z,3.53
2022-11-30T03:56:07.313Z,3.54
2022-11-30T03:59:10.764Z,3.54
2022-11-30T04:02:14.243Z,3.56
2022-11-30T04:05:17.823Z,3.55
2022-11-30T04:08:21.613Z,3.53
2022-11-30T04:11:24.958Z,3.53
2022-11-30T04:14:28.309Z,3.54
2022-11-30T04:17:31.549Z,3.56
2022-11-30T04:20:40.090Z,3.59
2022-11-30T04:23:43.914Z,3.60
2022-11-30T04:26:47.282Z,3.57
2022-11-30T04:29:51.359Z,3.55
2022-11-30T04:32:54.968Z,3.57
2022-11-30T04:36:00.118Z,3.63
2022-11-30T04:39:03.716Z,3.64
2022-11-30T04:42:07.385Z,3.56
2022-11-30T04:45:12.027Z,3.43
2022-11-30T04:48:16.298Z,3.37
2022-11-30T04:51:19.761Z,3.26
2022-11-30T04:54:23.158Z,3.25
2022-11-30T04:57:26.702Z,3.31
2022-11-30T05:00:30.271Z,3.38
2022-11-30T05:03:33.872Z,3.40
2022-11-30T05:06:37.373Z,3.36
2022-11-30T05:09:40.977Z,3.25
2022-11-30T05:12:44.778Z,3.18
2022-11-30T05:15:48.394Z,3.13
2022-11-30T05:18:51.977Z,3.12
2022-11-30T05:21:55.334Z,3.08
2022-11-30T05:24:58.895Z,3.00
2022-11-30T05:28:02.496Z,3.00
2022-11-30T05:31:07.002Z,2.97
2022-11-30T05:34:10.319Z,2.97
2022-11-30T05:37:13.821Z,2.96
2022-11-30T05:40:17.565Z,2.94
2022-11-30T05:43:20.901Z,2.90
2022-11-30T05:46:24.371Z,2.87
2022-11-30T05:49:27.765Z,2.90
2022-11-30T05:52:31.257Z,2.92
2022-11-30T05:55:34.669Z,2.89
2022-11-30T05:58:38.382Z,2.79
2022-11-30T06:01:41.974Z,2.70
2022-11-30T06:04:45.791Z,2.69
2022-11-30T06:07:49.588Z,2.71
2022-11-30T06:10:53.255Z,2.78
2022-11-30T06:13:56.574Z,2.85
2022-11-30T06:17:00.465Z,2.93
2022-11-30T06:20:03.978Z,3.00
2022-11-30T06:23:07.876Z,3.05
2022-11-30T06:26:12.348Z,3.11
2022-11-30T06:29:15.757Z,3.16
2022-11-30T06:32:19.095Z,3.21
2022-11-30T06:35:22.508Z,3.24
2022-11-30T06:38:25.874Z,3.25
2022-11-30T06:41:29.294Z,3.28
2022-11-30T06:44:32.805Z,3.32
2022-11-30T06:47:36.392Z,3.38
2022-11-30T06:50:43.248Z,3.42
2022-11-30T06:53:50.449Z,3.42
2022-11-30T06:56:54.011Z,3.41
2022-11-30T06:59:57.847Z,3.39
2022-11-30T07:03:01.585Z,3.37
2022-11-30T07:06:10.531Z,3.37
2022-11-30T07:09:14.009Z,3.39
2022-11-30T07:12:17.565Z,3.43
2022-11-30T07:15:20.911Z,3.48
2022-11-30T07:18:30.145Z,3.46
2022-11-30T07:21:35.395Z,3.40
2022-11-30T07:24:56.804Z,3.27
2022-11-30T07:28:00.199Z,3.05
2022-11-30T07:31:16.182Z,2.97
2022-11-30T07:34:20.628Z,2.91
2022-11-30T07:37:24.288Z,2.87
2022-11-30T07:40:27.736Z,2.86
2022-11-30T07:43:31.372Z,2.83
2022-11-30T07:46:35.654Z,2.80
2022-11-30T07:49:39.367Z,2.79
2022-11-30T07:52:42.868Z,2.74
2022-11-30T07:55:46.450Z,2.73
2022-11-30T07:58:51.004Z,2.67
2022-11-30T08:01:54.524Z,2.66
2022-11-30T08:04:58.158Z,2.56
2022-11-30T08:08:01.610Z,2.54
2022-11-30T08:11:06.034Z,2.58
2022-11-30T08:14:11.679Z,2.60
2022-11-30T08:17:15.329Z,2.64
2022-11-30T08:20:19.218Z,2.61
2022-11-30T08:23:22.645Z,2.66
2022-11-30T08:26:28.212Z,2.69
2022-11-30T08:29:31.875Z,2.69
2022-11-30T08:32:35.242Z,2.62
2022-11-30T08:35:38.622Z,2.58
2022-11-30T08:38:43.273Z,2.59
2022-11-30T08:41:46.633Z,2.60
2022-11-30T08:44:50.075Z,2.61
2022-11-30T08:47:55.108Z,2.60
2022-11-30T08:51:01.116Z,2.60
2022-11-30T08:54:04.674Z,2.60
2022-11-30T08:57:08.275Z,2.60
2022-11-30T09:00:13.703Z,2.63
2022-11-30T09:03:17.118Z,2.66
2022-11-30T09:06:22.094Z,2.70
2022-11-30T09:09:25.601Z,2.73
2022-11-30T09:12:29.037Z,2.75
2022-11-30T09:15:33.038Z,2.83
2022-11-30T09:18:36.674Z,2.84
2022-11-30T09:21:40.070Z,2.78
2022-11-30T09:24:43.467Z,2.82
2022-11-30T09:27:46.872Z,2.91
2022-11-30T09:30:50.405Z,3.00
2022-11-30T09:33:55.712Z,2.97
2022-11-30T09:36:59.220Z,2.98
2022-11-30T09:40:02.618Z,3.02
2022-11-30T09:43:15.953Z,3.04
2022-11-30T09:46:24.505Z,3.02
2022-11-30T09:49:30.219Z,2.97
2022-11-30T09:52:37.200Z,2.98
2022-11-30T09:55:43.277Z,2.92
2022-11-30T09:58:50.644Z,2.96
2022-11-30T10:01:57.217Z,3.02
2022-11-30T10:05:01.689Z,3.02
2022-11-30T10:08:19.597Z,3.09
2022-11-30T10:11:49.873Z,3.18
2022-11-30T10:15:24.340Z,3.19
2022-11-30T10:18:37.479Z,3.07
2022-11-30T10:21:55.525Z,3.00
2022-11-30T10:25:13.355Z,2.95
2022-11-30T10:28:46.472Z,2.85
2022-11-30T10:31:50.982Z,2.86
2022-11-30T10:35:01.853Z,2.89
2022-11-30T10:38:12.215Z,2.94
2022-11-30T10:41:19.244Z,2.93
2022-11-30T10:44:27.718Z,3.00
2022-11-30T10:47:36.346Z,3.07
2022-11-30T10:50:41.917Z,3.08
2022-11-30T10:53:45.405Z,3.11
2022-11-30T10:56:49.207Z,3.14
2022-11-30T10:59:54.865Z,3.15
2022-11-30T11:02:58.752Z,3.09
2022-11-30T11:06:21.883Z,3.02
2022-11-30T11:09:33.832Z,3.02
2022-11-30T11:12:38.020Z,3.02
2022-11-30T11:15:55.751Z,3.03
2022-11-30T11:18:59.377Z,3.05
2022-11-30T11:22:05.260Z,3.04
2022-11-30T11:25:20.718Z,3.05
2022-11-30T11:28:25.076Z,3.13
2022-11-30T11:31:36.132Z,3.19
2022-11-30T11:34:39.923Z,3.25
2022-11-30T11:37:52.074Z,3.31
2022-11-30T11:41:01.070Z,3.37
2022-11-30T11:44:16.029Z,3.43
2022-11-30T11:47:25.949Z,3.37
2022-11-30T11:51:04.949Z,3.39
2022-11-30T11:53:56.050Z,3.49
2022-11-30T11:57:00.261Z,3.55
2022-11-30T12:00:16.113Z,3.66
2022-11-30T12:03:31.548Z,3.75
2022-11-30T12:06:36.168Z,3.78
2022-11-30T12:09:47.321Z,3.71
2022-11-30T12:12:54.756Z,3.65
2022-11-30T12:16:14.623Z,3.64
2022-11-30T12:19:22.599Z,3.60
2022-11-30T12:22:48.327Z,3.48
2022-11-30T12:26:01.005Z,3.39
2022-11-30T12:29:20.275Z,3.36
2022-11-30T12:32:37.635Z,3.34
2022-11-30T12:36:01.478Z,3.32
2022-11-30T12:39:14.669Z,3.33
2022-11-30T12:42:24.677Z,3.38
2022-11-30T12:45:34.865Z,3.39
2022-11-30T12:48:47.880Z,3.44
2022-11-30T12:52:02.651Z,3.51
2022-11-30T12:55:17.210Z,3.61
2022-11-30T12:58:27.455Z,3.68
2022-11-30T13:01:48.532Z,3.70
2022-11-30T13:04:59.811Z,3.65
2022-11-30T13:08:12.382Z,3.65
2022-11-30T13:11:19.801Z,3.67
2022-11-30T13:14:24.504Z,3.67
2022-11-30T13:17:30.574Z,3.69
2022-11-30T13:20:41.408Z,3.73
2022-11-30T13:23:54.662Z,3.73
2022-11-30T13:27:01.861Z,3.70
2022-11-30T13:30:24.284Z,3.65
2022-11-30T13:33:48.004Z,3.63
2022-11-30T13:36:52.164Z,3.69
2022-11-30T13:39:56.921Z,3.74
2022-11-30T13:43:00.449Z,3.77
2022-11-30T13:46:07.067Z,3.81
2022-11-30T13:49:22.058Z,3.87
2022-11-30T13:52:57.042Z,3.90
2022-11-30T13:56:02.905Z,3.86
2022-11-30T13:59:35.841Z,3.87
2022-11-30T14:03:13.254Z,3.90
2022-11-30T14:06:47.955Z,3.86
2022-11-30T14:10:22.315Z,3.82
2022-11-30T14:13:31.404Z,3.78
2022-11-30T14:16:35.080Z,3.79
2022-11-30T14:19:38.624Z,3.80
2022-11-30T14:22:43.580Z,3.79
2022-11-30T14:25:49.148Z,3.76
2022-11-30T14:28:58.572Z,3.74
2022-11-30T14:32:08.424Z,3.58
2022-11-30T14:35:15.584Z,3.52
2022-11-30T14:38:24.965Z,3.47
2022-11-30T14:41:30.327Z,3.44
2022-11-30T14:44:40.145Z,3.42
2022-11-30T14:47:47.958Z,3.43
2022-11-30T14:50:53.217Z,3.44
2022-11-30T14:54:06.420Z,3.48
2022-11-30T14:57:21.037Z,3.45
2022-11-30T15:00:24.874Z,3.38
2022-11-30T15:03:31.231Z,3.33
2022-11-30T15:06:39.976Z,3.34
2022-11-30T15:09:43.732Z,3.32
2022-11-30T15:12:47.416Z,3.32
2022-11-30T15:15:55.409Z,3.34
2022-11-30T15:18:59.825Z,3.37
2022-11-30T15:22:03.333Z,3.44
2022-11-30T15:25:11.946Z,3.53
2022-11-30T15:28:19.691Z,3.60
2022-11-30T15:31:24.132Z,3.63
2022-11-30T15:34:37.130Z,3.59
2022-11-30T15:37:41.673Z,3.54
2022-11-30T15:40:53.050Z,3.49
2022-11-30T15:43:58.037Z,3.46
2022-11-30T15:47:03.321Z,3.52
2022-11-30T15:50:34.702Z,3.61
2022-11-30T15:53:50.243Z,3.70
2022-11-30T15:56:57.921Z,3.76
2022-11-30T16:00:07.784Z,3.82
2022-11-30T16:03:13.058Z,3.84
2022-11-30T16:06:19.178Z,3.84
2022-11-30T16:09:26.054Z,3.84
2022-11-30T16:12:30.156Z,3.87
2022-11-30T16:15:35.422Z,3.92
2022-11-30T16:18:38.920Z,3.96
2022-11-30T16:21:42.789Z,3.96
2022-11-30T16:24:46.230Z,3.97
2022-11-30T16:27:50.084Z,3.98
2022-11-30T16:30:55.788Z,4.01
2022-11-30T16:33:59.397Z,4.03
2022-11-30T16:37:04.370Z,4.07
2022-11-30T16:40:10.165Z,4.12
2022-11-30T16:43:13.885Z,4.16
2022-11-30T16:46:19.079Z,4.17
2022-11-30T16:49:22.533Z,4.17
2022-11-30T16:52:25.973Z,4.16
2022-11-30T16:55:34.246Z,4.17
2022-11-30T16:58:37.747Z,4.21
2022-11-30T17:01:43.223Z,4.22
2022-11-30T17:04:47.127Z,4.23
2022-11-30T17:07:50.761Z,4.24
2022-11-30T17:10:55.073Z,4.26
2022-11-30T17:13:59.006Z,4.29
2022-11-30T17:17:02.505Z,4.34
2022-11-30T17:20:08.369Z,4.38
2022-11-30T17:23:11.668Z,4.38
2022-11-30T17:26:15.101Z,4.39
2022-11-30T17:29:18.596Z,4.41
2022-11-30T17:32:22.009Z,4.45
2022-11-30T17:35:25.389Z,4.48
2022-11-30T17:38:28.873Z,4.49
2022-11-30T17:41:32.218Z,4.45
2022-11-30T17:44:35.796Z,4.38
2022-11-30T17:47:39.549Z,4.28
2022-11-30T17:50:43.208Z,4.19
2022-11-30T17:53:46.790Z,4.14
2022-11-30T17:56:52.169Z,4.11
2022-11-30T17:59:56.785Z,4.11
2022-11-30T18:03:00.341Z,4.09
2022-11-30T18:06:04.144Z,4.06
2022-11-30T18:09:07.739Z,4.05
2022-11-30T18:12:12.065Z,4.04
2022-11-30T18:15:15.726Z,4.02
2022-11-30T18:18:19.020Z,3.97
2022-11-30T18:21:23.992Z,3.93
2022-11-30T18:24:27.507Z,3.92
2022-11-30T18:27:30.856Z,3.90
2022-11-30T18:30:36.627Z,3.87
2022-11-30T18:33:40.460Z,3.84
2022-11-30T18:36:44.021Z,3.80
2022-11-30T18:39:47.401Z,3.75
2022-11-30T18:42:50.814Z,3.71
2022-11-30T18:46:01.416Z,3.70
2022-11-30T18:49:06.319Z,3.73
2022-11-30T18:52:09.865Z,3.79
2022-11-30T18:55:13.426Z,3.86
2022-11-30T18:58:16.825Z,3.90
2022-11-30T19:01:21.048Z,3.96
2022-11-30T19:04:25.743Z,4.04
2022-11-30T19:07:29.326Z,4.12
2022-11-30T19:10:34.795Z,4.18
2022-11-30T19:13:38.220Z,4.22
2022-11-30T19:16:41.986Z,4.26
2022-11-30T19:19:45.636Z,4.31
2022-11-30T19:22:49.133Z,4.33
2022-11-30T19:25:53.047Z,4.34
2022-11-30T19:28:57.542Z,4.36
2022-11-30T19:32:01.075Z,4.39
2022-11-30T19:35:05.798Z,4.42
2022-11-30T19:38:09.195Z,4.44
2022-11-30T19:41:13.936Z,4.46
2022-11-30T19:44:17.816Z,4.49
2022-11-30T19:47:21.113Z,4.53
2022-11-30T19:50:25.337Z,4.57
2022-11-30T19:53:29.791Z,4.61
2022-11-30T19:56:35.099Z,4.65
2022-11-30T19:59:38.569Z,4.69
2022-11-30T20:02:42.153Z,4.71
2022-11-30T20:05:49.696Z,4.72
2022-11-30T20:08:53.123Z,4.71
2022-11-30T20:11:56.617Z,4.70
2022-11-30T20:15:00.068Z,4.69
2022-11-30T20:18:03.691Z,4.68
2022-11-30T20:21:15.401Z,4.68
2022-11-30T20:24:18.761Z,4.67
2022-11-30T20:27:24.174Z,4.70
2022-11-30T20:30:28.035Z,4.72
2022-11-30T20:33:31.562Z,4.74
2022-11-30T20:36:35.386Z,4.76
2022-11-30T20:39:45.526Z,4.79
2022-11-30T20:42:50.635Z,4.82
2022-11-30T20:45:54.197Z,4.85
2022-11-30T20:48:58.433Z,4.90
2022-11-30T20:52:01.847Z,4.93
2022-11-30T20:55:06.630Z,4.95
2022-11-30T20:58:10.135Z,4.99
2022-11-30T21:01:15.033Z,5.02
2022-11-30T21:04:18.780Z,5.03
2022-11-30T21:07:22.202Z,5.05
2022-11-30T21:10:25.778Z,5.05
2022-11-30T21:13:29.381Z,5.06
2022-11-30T21:16:33.611Z,5.07
2022-11-30T21:19:37.153Z,5.08
2022-11-30T21:22:40.493Z,5.04
2022-11-30T21:25:45.226Z,4.95
2022-11-30T21:28:52.206Z,4.85
2022-11-30T21:31:55.675Z,4.77
2022-11-30T21:34:59.074Z,4.73
2022-11-30T21:38:02.456Z,4.71
2022-11-30T21:41:06.469Z,4.68
2022-11-30T21:44:12.758Z,4.67
2022-11-30T21:47:15.166Z,4.67
2022-11-30T21:50:22.991Z,4.65
2022-11-30T21:53:30.044Z,4.70
2022-11-30T21:56:35.547Z,4.75
2022-11-30T21:59:39.003Z,4.79
2022-11-30T22:02:42.520Z,4.83
2022-11-30T22:05:45.900Z,4.87
2022-11-30T22:08:49.778Z,4.92
2022-11-30T22:11:54.961Z,4.96
2022-11-30T22:14:58.336Z,4.99
2022-11-30T22:18:01.645Z,5.03
2022-11-30T22:21:08.442Z,5.03
2022-11-30T22:24:13.269Z,5.04
2022-11-30T22:27:16.701Z,5.04
2022-11-30T22:30:20.366Z,5.05
2022-11-30T22:33:23.871Z,5.06
2022-11-30T22:36:28.636Z,5.08
2022-11-30T22:39:31.974Z,5.10
2022-11-30T22:42:37.145Z,5.11
2022-11-30T22:45:40.566Z,5.14
2022-11-30T22:48:44.689Z,5.16
2022-11-30T22:51:48.152Z,5.18
2022-11-30T22:54:51.782Z,5.19
2022-11-30T22:57:55.251Z,5.21
2022-11-30T23:00:59.335Z,5.21
2022-11-30T23:04:04.764Z,5.22
2022-11-30T23:07:07.534Z,5.24
2022-11-30T23:10:12.337Z,5.24
2022-11-30T23:13:14.992Z,5.24
2022-11-30T23:16:18.847Z,5.24
2022-11-30T23:19:21.527Z,5.24
2022-11-30T23:22:24.196Z,5.26
2022-11-30T23:25:26.859Z,5.22
2022-11-30T23:28:29.492Z,5.12
2022-11-30T23:31:35.611Z,5.05
2022-11-30T23:34:39.141Z,5.04
2022-11-30T23:37:41.795Z,5.03
2022-11-30T23:40:44.429Z,5.01
2022-11-30T23:43:47.086Z,5.02
2022-11-30T23:46:49.992Z,5.05
2022-11-30T23:49:52.784Z,5.07
2022-11-30T23:52:55.603Z,5.09
2022-11-30T23:56:02.750Z,5.08
2022-11-30T23:59:05.616Z,5.06
